Puropanmaru No.3 — JD3322 — position and weather

sailwx.info

Track history (hours):
 
Tides and Currents Weather Stations Pressure Air Temp Water Temp Dewpoint Dewpoint Depression Visibility Wind Speed Wind Dir Waves Ship Positions

Puropanmaru No.3

Last reported at 2015-May-27 07:33 UTC. Time now 2015-May-27 07:53 UTC.
Position N 35°08' E 139°43'.

Length 68 m; draft 4.5 m.

Type: Tanker. MMSI: 431003365.

Date/timePositionNaut miles runAvg speedWind from/ knotsBaromVisibWave heightAir tempDewpointWater temp
2015-May-27 07:33N 35°08' E 139°43'1211.7
2015-May-27 06:33N 35°20' E 139°42'1211.9
2015-May-27 05:34N 35°29' E 139°51'1110.5
2015-May-27 04:33N 35°32' E 140°03'0 0.0
2015-May-27 03:33N 35°32' E 140°03'0 0.0
2015-May-27 02:33N 35°32' E 140°03'0 0.0
2015-May-27 01:32N 35°32' E 140°03'0 0.0
2015-May-27 00:33N 35°32' E 140°03'2 1.6
2015-May-26 23:33N 35°32' E 140°02'7 6.9
2015-May-26 22:32N 35°29' E 139°54'0 0.0
2015-May-26 21:26N 35°29' E 139°54'0 0.3
2015-May-26 20:33N 35°29' E 139°53'1212.0
2015-May-26 19:33N 35°19' E 139°44'1211.9
2015-May-26 18:33N 35°07' E 139°45'1312.9
2015-May-26 17:33N 34°54' E 139°45'1511.9
2015-May-26 16:18N 34°55' E 140°03'2312.8
2015-May-26 14:28N 35°09' E 140°26'1110.5
2015-May-26 13:23N 35°16' E 140°37'911.0
2015-May-26 12:33N 35°24' E 140°43'2511.4
2015-May-26 10:23N 35°47' E 140°53'1412.4
2015-May-26 09:17N 35°58' E 140°43'23 2.3
2015-May-25 23:31N 35°36' E 140°51'1313.2
2015-May-25 22:32N 35°26' E 140°42'1313.1
2015-May-25 21:33N 35°15' E 140°33'1812.7
2015-May-25 20:08N 35°02' E 140°17'711.8
2015-May-25 19:33N 34°58' E 140°10'1211.3
2015-May-25 18:28N 34°52' E 139°58'  
2015-May-23 10:31N 34°07' E 134°46'2812.6
2015-May-23 08:16N 34°34' E 134°39'28 3.1
2015-May-22 23:10N 34°07' E 134°47'  
Track history (hours):
 
Tides and Currents Weather Stations Pressure Air Temp Water Temp Dewpoint Dewpoint Depression Visibility Wind Speed Wind Dir Waves Ship Positions

Puropanmaru No.3

Last reported at 2015-May-27 07:33 UTC. Time now 2015-May-27 07:53 UTC.
Position N 35°08' E 139°43'.

Length 68 m; draft 4.5 m.

Type: Tanker. MMSI: 431003365.

Date/timePositionNaut miles runAvg speedWind from/ knotsBaromVisibWave heightAir tempDewpointWater temp
2015-May-27 07:33N 35°08' E 139°43'1211.7
2015-May-27 06:33N 35°20' E 139°42'1211.9
2015-May-27 05:34N 35°29' E 139°51'1110.5
2015-May-27 04:33N 35°32' E 140°03'0 0.0
2015-May-27 03:33N 35°32' E 140°03'0 0.0
2015-May-27 02:33N 35°32' E 140°03'0 0.0
2015-May-27 01:32N 35°32' E 140°03'0 0.0
2015-May-27 00:33N 35°32' E 140°03'2 1.6
2015-May-26 23:33N 35°32' E 140°02'7 6.9
2015-May-26 22:32N 35°29' E 139°54'0 0.0
2015-May-26 21:26N 35°29' E 139°54'0 0.3
2015-May-26 20:33N 35°29' E 139°53'1212.0
2015-May-26 19:33N 35°19' E 139°44'1211.9
2015-May-26 18:33N 35°07' E 139°45'1312.9
2015-May-26 17:33N 34°54' E 139°45'1511.9
2015-May-26 16:18N 34°55' E 140°03'2312.8
2015-May-26 14:28N 35°09' E 140°26'1110.5
2015-May-26 13:23N 35°16' E 140°37'911.0
2015-May-26 12:33N 35°24' E 140°43'2511.4
2015-May-26 10:23N 35°47' E 140°53'1412.4
2015-May-26 09:17N 35°58' E 140°43'23 2.3
2015-May-25 23:31N 35°36' E 140°51'1313.2
2015-May-25 22:32N 35°26' E 140°42'1313.1
2015-May-25 21:33N 35°15' E 140°33'1812.7
2015-May-25 20:08N 35°02' E 140°17'711.8
2015-May-25 19:33N 34°58' E 140°10'1211.3
2015-May-25 18:28N 34°52' E 139°58'  
2015-May-23 10:31N 34°07' E 134°46'2812.6
2015-May-23 08:16N 34°34' E 134°39'28 3.1
2015-May-22 23:10N 34°07' E 134°47'  

Dump ship's entire track history